Terminal Aerodrome Forecast
Issued by NWS Bismarck, ND

Home | Current Version | Previous Version | Graphics & Text | Print | Product List | Glossary On
Versions: 1 2 3 4 5 6 7 8 9 10 11 12 13 14 15 16 17 18 19 20 21 22 23 24 25 26 27 28
000
FTUS43 KBIS 282300
TAFBIS
TAF
KBIS 282328Z 2900/2924 18020G30KT P6SM BKN120
     FM290100 26024G35KT P6SM VCTS BKN100CB
      TEMPO 2901/2903 28035G45KT 5SM -TSRA BLDU BKN060CB
     FM290600 31028G41KT 5SM -SHRA BKN022
     FM291000 31029G43KT P6SM BKN030
     FM291600 31023G35KT P6SM SCT230
     FM292200 31018G26KT P6SM SCT180=

USA.gov is the U.S. government's official web portal to all federal, state and local government web resources and services.